sensor_id;sensor_type;location;lat;lon;timestamp;P1;durP1;ratioP1;P2;durP2;ratioP2
26413;SDS011;14108;53.668;10.288;2022-08-01T00:02:16;12.65;;;8.80;;
26413;SDS011;14108;53.668;10.288;2022-08-01T00:04:43;11.98;;;9.73;;
26413;SDS011;14108;53.668;10.288;2022-08-01T00:07:10;10.88;;;8.80;;
26413;SDS011;14108;53.668;10.288;2022-08-01T00:09:37;9.68;;;8.68;;
26413;SDS011;14108;53.668;10.288;2022-08-01T00:12:04;10.70;;;9.60;;
26413;SDS011;14108;53.668;10.288;2022-08-01T00:14:31;10.90;;;8.80;;
26413;SDS011;14108;53.668;10.288;2022-08-01T00:16:59;11.98;;;8.30;;
26413;SDS011;14108;53.668;10.288;2022-08-01T00:19:26;9.95;;;8.70;;
26413;SDS011;14108;53.668;10.288;2022-08-01T00:21:53;11.77;;;9.02;;
26413;SDS011;14108;53.668;10.288;2022-08-01T00:24:20;11.18;;;9.32;;
26413;SDS011;14108;53.668;10.288;2022-08-01T00:26:47;12.50;;;9.68;;
26413;SDS011;14108;53.668;10.288;2022-08-01T00:29:14;13.80;;;10.50;;
26413;SDS011;14108;53.668;10.288;2022-08-01T00:31:41;12.35;;;10.77;;
26413;SDS011;14108;53.668;10.288;2022-08-01T00:34:08;12.00;;;10.05;;
26413;SDS011;14108;53.668;10.288;2022-08-01T00:36:35;11.32;;;9.27;;
26413;SDS011;14108;53.668;10.288;2022-08-01T00:39:02;14.95;;;10.85;;
26413;SDS011;14108;53.668;10.288;2022-08-01T00:41:30;12.70;;;10.02;;
26413;SDS011;14108;53.668;10.288;2022-08-01T00:43:57;12.18;;;9.80;;
26413;SDS011;14108;53.668;10.288;2022-08-01T00:46:24;12.00;;;9.90;;
26413;SDS011;14108;53.668;10.288;2022-08-01T00:48:51;10.52;;;9.38;;
26413;SDS011;14108;53.668;10.288;2022-08-01T00:51:19;10.43;;;8.35;;
26413;SDS011;14108;53.668;10.288;2022-08-01T00:53:46;14.93;;;10.18;;
26413;SDS011;14108;53.668;10.288;2022-08-01T00:56:13;11.60;;;8.55;;
26413;SDS011;14108;53.668;10.288;2022-08-01T00:58:40;15.35;;;11.15;;
26413;SDS011;14108;53.668;10.288;2022-08-01T01:01:07;15.02;;;10.10;;
26413;SDS011;14108;53.668;10.288;2022-08-01T01:03:34;12.40;;;10.80;;
26413;SDS011;14108;53.668;10.288;2022-08-01T01:06:05;15.27;;;11.12;;
26413;SDS011;14108;53.668;10.288;2022-08-01T01:08:35;17.92;;;12.35;;
26413;SDS011;14108;53.668;10.288;2022-08-01T01:11:08;17.17;;;11.75;;
26413;SDS011;14108;53.668;10.288;2022-08-01T01:13:38;13.35;;;10.52;;
26413;SDS011;14108;53.668;10.288;2022-08-01T01:16:06;13.93;;;10.90;;
26413;SDS011;14108;53.668;10.288;2022-08-01T01:18:37;17.35;;;11.07;;
26413;SDS011;14108;53.668;10.288;2022-08-01T01:21:07;12.13;;;10.70;;
26413;SDS011;14108;53.668;10.288;2022-08-01T01:23:42;14.85;;;11.55;;
26413;SDS011;14108;53.668;10.288;2022-08-01T01:26:20;13.30;;;9.98;;
26413;SDS011;14108;53.668;10.288;2022-08-01T01:28:56;15.60;;;11.12;;
26413;SDS011;14108;53.668;10.288;2022-08-01T01:31:24;11.73;;;8.73;;
26413;SDS011;14108;53.668;10.288;2022-08-01T01:33:53;11.75;;;9.50;;
26413;SDS011;14108;53.668;10.288;2022-08-01T01:36:20;12.68;;;9.95;;
26413;SDS011;14108;53.668;10.288;2022-08-01T01:38:48;12.95;;;9.40;;
26413;SDS011;14108;53.668;10.288;2022-08-01T01:41:16;14.57;;;10.18;;
26413;SDS011;14108;53.668;10.288;2022-08-01T01:43:44;14.23;;;10.75;;
26413;SDS011;14108;53.668;10.288;2022-08-01T01:46:12;14.82;;;11.27;;
26413;SDS011;14108;53.668;10.288;2022-08-01T01:48:43;16.05;;;10.80;;
26413;SDS011;14108;53.668;10.288;2022-08-01T01:51:10;13.18;;;9.80;;
26413;SDS011;14108;53.668;10.288;2022-08-01T01:53:38;14.73;;;10.38;;
26413;SDS011;14108;53.668;10.288;2022-08-01T01:56:06;14.38;;;10.93;;
26413;SDS011;14108;53.668;10.288;2022-08-01T01:58:35;15.80;;;10.98;;
26413;SDS011;14108;53.668;10.288;2022-08-01T02:01:04;16.27;;;10.80;;
26413;SDS011;14108;53.668;10.288;2022-08-01T02:03:33;17.25;;;10.80;;
26413;SDS011;14108;53.668;10.288;2022-08-01T02:06:02;17.17;;;10.20;;
26413;SDS011;14108;53.668;10.288;2022-08-01T02:08:30;13.60;;;9.90;;
26413;SDS011;14108;53.668;10.288;2022-08-01T02:10:58;15.95;;;11.15;;
26413;SDS011;14108;53.668;10.288;2022-08-01T02:13:55;13.40;;;10.20;;
26413;SDS011;14108;53.668;10.288;2022-08-01T02:16:25;21.00;;;11.85;;
26413;SDS011;14108;53.668;10.288;2022-08-01T02:18:53;18.37;;;12.32;;
26413;SDS011;14108;53.668;10.288;2022-08-01T02:21:23;14.13;;;10.05;;
26413;SDS011;14108;53.668;10.288;2022-08-01T02:23:52;13.13;;;9.77;;
26413;SDS011;14108;53.668;10.288;2022-08-01T02:26:19;13.40;;;9.20;;
26413;SDS011;14108;53.668;10.288;2022-08-01T02:28:49;17.30;;;10.88;;
26413;SDS011;14108;53.668;10.288;2022-08-01T02:31:18;16.52;;;10.55;;
26413;SDS011;14108;53.668;10.288;2022-08-01T02:33:49;16.17;;;10.23;;
26413;SDS011;14108;53.668;10.288;2022-08-01T02:36:17;13.50;;;9.07;;
26413;SDS011;14108;53.668;10.288;2022-08-01T02:38:45;14.02;;;9.25;;
26413;SDS011;14108;53.668;10.288;2022-08-01T02:41:13;12.50;;;8.63;;
26413;SDS011;14108;53.668;10.288;2022-08-01T02:43:46;15.93;;;10.48;;
26413;SDS011;14108;53.668;10.288;2022-08-01T02:46:16;10.77;;;8.05;;
26413;SDS011;14108;53.668;10.288;2022-08-01T02:48:44;12.40;;;9.45;;
26413;SDS011;14108;53.668;10.288;2022-08-01T02:51:13;9.85;;;8.20;;
26413;SDS011;14108;53.668;10.288;2022-08-01T02:53:41;14.02;;;9.20;;
26413;SDS011;14108;53.668;10.288;2022-08-01T02:56:09;16.08;;;9.13;;
26413;SDS011;14108;53.668;10.288;2022-08-01T02:58:36;11.30;;;7.15;;
26413;SDS011;14108;53.668;10.288;2022-08-01T03:01:05;10.95;;;8.18;;
26413;SDS011;14108;53.668;10.288;2022-08-01T03:03:33;10.15;;;7.62;;
26413;SDS011;14108;53.668;10.288;2022-08-01T03:06:00;12.23;;;7.65;;
26413;SDS011;14108;53.668;10.288;2022-08-01T03:08:28;12.55;;;8.20;;
26413;SDS011;14108;53.668;10.288;2022-08-01T03:10:56;10.70;;;8.15;;
26413;SDS011;14108;53.668;10.288;2022-08-01T03:13:24;11.77;;;8.32;;
26413;SDS011;14108;53.668;10.288;2022-08-01T03:15:52;12.63;;;9.15;;
26413;SDS011;14108;53.668;10.288;2022-08-01T03:18:20;9.00;;;7.10;;
26413;SDS011;14108;53.668;10.288;2022-08-01T03:20:49;12.75;;;8.02;;
26413;SDS011;14108;53.668;10.288;2022-08-01T03:23:17;12.20;;;8.10;;
26413;SDS011;14108;53.668;10.288;2022-08-01T03:25:45;7.87;;;6.95;;
26413;SDS011;14108;53.668;10.288;2022-08-01T03:28:13;9.30;;;7.10;;
26413;SDS011;14108;53.668;10.288;2022-08-01T03:30:40;9.35;;;7.30;;
26413;SDS011;14108;53.668;10.288;2022-08-01T03:33:09;11.57;;;8.50;;
26413;SDS011;14108;53.668;10.288;2022-08-01T03:35:37;10.65;;;7.57;;
26413;SDS011;14108;53.668;10.288;2022-08-01T03:38:06;9.32;;;7.22;;
26413;SDS011;14108;53.668;10.288;2022-08-01T03:40:37;12.65;;;8.18;;
26413;SDS011;14108;53.668;10.288;2022-08-01T03:43:07;9.15;;;7.10;;
26413;SDS011;14108;53.668;10.288;2022-08-01T03:45:35;9.07;;;7.05;;
26413;SDS011;14108;53.668;10.288;2022-08-01T03:48:05;11.20;;;7.78;;
26413;SDS011;14108;53.668;10.288;2022-08-01T03:50:33;9.85;;;7.32;;
26413;SDS011;14108;53.668;10.288;2022-08-01T03:53:02;8.63;;;7.22;;
26413;SDS011;14108;53.668;10.288;2022-08-01T03:55:30;10.77;;;7.25;;
26413;SDS011;14108;53.668;10.288;2022-08-01T03:57:58;10.93;;;7.90;;
26413;SDS011;14108;53.668;10.288;2022-08-01T04:00:27;10.82;;;7.55;;
26413;SDS011;14108;53.668;10.288;2022-08-01T04:02:54;13.50;;;9.93;;
26413;SDS011;14108;53.668;10.288;2022-08-01T04:05:22;15.77;;;8.27;;
26413;SDS011;14108;53.668;10.288;2022-08-01T04:07:50;9.95;;;8.25;;
26413;SDS011;14108;53.668;10.288;2022-08-01T04:10:21;10.48;;;8.00;;
26413;SDS011;14108;53.668;10.288;2022-08-01T04:12:48;10.38;;;7.43;;
26413;SDS011;14108;53.668;10.288;2022-08-01T04:15:15;11.48;;;8.13;;
26413;SDS011;14108;53.668;10.288;2022-08-01T04:17:43;12.07;;;8.05;;
26413;SDS011;14108;53.668;10.288;2022-08-01T04:20:11;12.05;;;7.62;;
26413;SDS011;14108;53.668;10.288;2022-08-01T04:22:38;13.02;;;7.85;;
26413;SDS011;14108;53.668;10.288;2022-08-01T04:25:09;8.45;;;7.12;;
26413;SDS011;14108;53.668;10.288;2022-08-01T04:27:38;10.80;;;7.10;;
26413;SDS011;14108;53.668;10.288;2022-08-01T04:30:08;9.75;;;6.87;;
26413;SDS011;14108;53.668;10.288;2022-08-01T04:32:37;10.10;;;6.55;;
26413;SDS011;14108;53.668;10.288;2022-08-01T04:35:06;10.52;;;6.90;;
26413;SDS011;14108;53.668;10.288;2022-08-01T04:37:34;9.55;;;6.87;;
26413;SDS011;14108;53.668;10.288;2022-08-01T04:40:03;10.82;;;8.60;;
26413;SDS011;14108;53.668;10.288;2022-08-01T04:42:31;13.93;;;7.60;;
26413;SDS011;14108;53.668;10.288;2022-08-01T04:44:58;9.15;;;7.65;;
26413;SDS011;14108;53.668;10.288;2022-08-01T04:47:25;10.77;;;8.40;;
26413;SDS011;14108;53.668;10.288;2022-08-01T04:49:53;7.60;;;6.85;;
26413;SDS011;14108;53.668;10.288;2022-08-01T04:52:22;7.87;;;6.43;;
26413;SDS011;14108;53.668;10.288;2022-08-01T04:54:49;9.20;;;5.72;;
26413;SDS011;14108;53.668;10.288;2022-08-01T04:57:16;7.35;;;6.20;;
26413;SDS011;14108;53.668;10.288;2022-08-01T04:59:43;8.20;;;6.60;;
26413;SDS011;14108;53.668;10.288;2022-08-01T05:02:12;8.50;;;6.68;;
26413;SDS011;14108;53.668;10.288;2022-08-01T05:04:40;9.35;;;6.75;;
26413;SDS011;14108;53.668;10.288;2022-08-01T05:07:08;8.60;;;6.65;;
26413;SDS011;14108;53.668;10.288;2022-08-01T05:09:36;7.85;;;6.35;;
26413;SDS011;14108;53.668;10.288;2022-08-01T05:12:04;9.88;;;7.57;;
26413;SDS011;14108;53.668;10.288;2022-08-01T05:14:32;8.70;;;6.80;;
26413;SDS011;14108;53.668;10.288;2022-08-01T05:16:59;9.68;;;7.05;;
26413;SDS011;14108;53.668;10.288;2022-08-01T05:19:29;10.73;;;7.00;;
26413;SDS011;14108;53.668;10.288;2022-08-01T05:21:57;9.63;;;6.40;;
26413;SDS011;14108;53.668;10.288;2022-08-01T05:24:26;10.90;;;7.40;;
26413;SDS011;14108;53.668;10.288;2022-08-01T05:26:54;6.30;;;5.62;;
26413;SDS011;14108;53.668;10.288;2022-08-01T05:29:21;9.15;;;6.18;;
26413;SDS011;14108;53.668;10.288;2022-08-01T05:31:48;7.78;;;5.85;;
26413;SDS011;14108;53.668;10.288;2022-08-01T05:34:15;5.03;;;4.47;;
26413;SDS011;14108;53.668;10.288;2022-08-01T05:36:42;5.37;;;2.85;;
26413;SDS011;14108;53.668;10.288;2022-08-01T05:39:09;6.35;;;3.28;;
26413;SDS011;14108;53.668;10.288;2022-08-01T05:41:36;2.97;;;2.72;;
26413;SDS011;14108;53.668;10.288;2022-08-01T05:44:03;2.90;;;2.60;;
26413;SDS011;14108;53.668;10.288;2022-08-01T05:46:30;3.78;;;3.37;;
26413;SDS011;14108;53.668;10.288;2022-08-01T05:48:57;5.45;;;2.92;;
26413;SDS011;14108;53.668;10.288;2022-08-01T05:51:25;5.85;;;3.70;;
26413;SDS011;14108;53.668;10.288;2022-08-01T05:53:52;4.55;;;3.12;;
26413;SDS011;14108;53.668;10.288;2022-08-01T05:56:19;3.22;;;2.85;;
26413;SDS011;14108;53.668;10.288;2022-08-01T05:58:46;4.28;;;2.97;;
26413;SDS011;14108;53.668;10.288;2022-08-01T06:01:13;4.95;;;2.80;;
26413;SDS011;14108;53.668;10.288;2022-08-01T06:03:40;5.30;;;2.50;;
26413;SDS011;14108;53.668;10.288;2022-08-01T06:06:07;4.10;;;2.70;;
26413;SDS011;14108;53.668;10.288;2022-08-01T06:08:34;3.37;;;2.17;;
26413;SDS011;14108;53.668;10.288;2022-08-01T06:11:01;5.70;;;2.33;;
26413;SDS011;14108;53.668;10.288;2022-08-01T06:13:28;4.85;;;2.72;;
26413;SDS011;14108;53.668;10.288;2022-08-01T06:15:55;7.90;;;2.50;;
26413;SDS011;14108;53.668;10.288;2022-08-01T06:18:23;3.80;;;2.45;;
26413;SDS011;14108;53.668;10.288;2022-08-01T06:20:50;6.57;;;3.00;;
26413;SDS011;14108;53.668;10.288;2022-08-01T06:23:17;4.28;;;3.20;;
26413;SDS011;14108;53.668;10.288;2022-08-01T06:25:44;3.10;;;2.30;;
26413;SDS011;14108;53.668;10.288;2022-08-01T06:28:11;8.20;;;3.35;;
26413;SDS011;14108;53.668;10.288;2022-08-01T06:30:38;4.35;;;2.50;;
26413;SDS011;14108;53.668;10.288;2022-08-01T06:33:05;6.97;;;3.00;;
26413;SDS011;14108;53.668;10.288;2022-08-01T06:35:32;5.28;;;2.37;;
26413;SDS011;14108;53.668;10.288;2022-08-01T06:37:59;6.05;;;3.08;;
26413;SDS011;14108;53.668;10.288;2022-08-01T06:40:26;6.72;;;2.50;;
26413;SDS011;14108;53.668;10.288;2022-08-01T06:42:53;5.62;;;2.58;;
26413;SDS011;14108;53.668;10.288;2022-08-01T06:45:20;7.03;;;2.87;;
26413;SDS011;14108;53.668;10.288;2022-08-01T06:47:48;7.45;;;3.17;;
26413;SDS011;14108;53.668;10.288;2022-08-01T06:50:15;7.57;;;3.05;;
26413;SDS011;14108;53.668;10.288;2022-08-01T06:52:42;11.45;;;2.53;;
26413;SDS011;14108;53.668;10.288;2022-08-01T06:55:09;4.37;;;2.55;;
26413;SDS011;14108;53.668;10.288;2022-08-01T06:57:36;6.50;;;3.00;;
26413;SDS011;14108;53.668;10.288;2022-08-01T07:00:04;7.12;;;2.55;;
26413;SDS011;14108;53.668;10.288;2022-08-01T07:02:33;7.28;;;2.50;;
26413;SDS011;14108;53.668;10.288;2022-08-01T07:05:02;6.25;;;2.50;;
26413;SDS011;14108;53.668;10.288;2022-08-01T07:07:29;8.25;;;2.65;;
26413;SDS011;14108;53.668;10.288;2022-08-01T07:09:56;9.10;;;2.85;;
26413;SDS011;14108;53.668;10.288;2022-08-01T07:12:23;10.63;;;3.58;;
26413;SDS011;14108;53.668;10.288;2022-08-01T07:14:50;6.95;;;2.65;;
26413;SDS011;14108;53.668;10.288;2022-08-01T07:17:17;11.05;;;3.00;;
26413;SDS011;14108;53.668;10.288;2022-08-01T07:19:46;12.82;;;3.80;;
26413;SDS011;14108;53.668;10.288;2022-08-01T07:22:13;6.82;;;2.72;;
26413;SDS011;14108;53.668;10.288;2022-08-01T07:24:40;6.90;;;2.83;;
26413;SDS011;14108;53.668;10.288;2022-08-01T07:27:07;7.80;;;3.33;;
26413;SDS011;14108;53.668;10.288;2022-08-01T07:29:34;9.85;;;2.70;;
26413;SDS011;14108;53.668;10.288;2022-08-01T07:32:01;7.93;;;3.00;;
26413;SDS011;14108;53.668;10.288;2022-08-01T07:34:28;7.85;;;3.30;;
26413;SDS011;14108;53.668;10.288;2022-08-01T07:36:55;5.45;;;2.58;;
26413;SDS011;14108;53.668;10.288;2022-08-01T07:39:22;12.05;;;3.33;;
26413;SDS011;14108;53.668;10.288;2022-08-01T07:41:49;6.70;;;2.47;;
26413;SDS011;14108;53.668;10.288;2022-08-01T07:44:16;7.82;;;3.90;;
26413;SDS011;14108;53.668;10.288;2022-08-01T07:46:43;7.43;;;3.03;;
26413;SDS011;14108;53.668;10.288;2022-08-01T07:49:10;12.55;;;2.95;;
26413;SDS011;14108;53.668;10.288;2022-08-01T07:51:37;9.32;;;3.08;;
26413;SDS011;14108;53.668;10.288;2022-08-01T07:54:04;9.70;;;3.00;;
26413;SDS011;14108;53.668;10.288;2022-08-01T07:56:32;8.07;;;2.83;;
26413;SDS011;14108;53.668;10.288;2022-08-01T07:58:59;14.90;;;3.45;;
26413;SDS011;14108;53.668;10.288;2022-08-01T08:01:26;13.77;;;3.22;;
26413;SDS011;14108;53.668;10.288;2022-08-01T08:03:53;7.62;;;3.00;;
26413;SDS011;14108;53.668;10.288;2022-08-01T08:06:20;8.02;;;3.05;;
26413;SDS011;14108;53.668;10.288;2022-08-01T08:08:47;10.90;;;3.55;;
26413;SDS011;14108;53.668;10.288;2022-08-01T08:11:14;8.48;;;3.37;;
26413;SDS011;14108;53.668;10.288;2022-08-01T08:13:41;10.68;;;3.30;;
26413;SDS011;14108;53.668;10.288;2022-08-01T08:16:08;11.88;;;3.33;;
26413;SDS011;14108;53.668;10.288;2022-08-01T08:18:35;12.60;;;3.25;;
26413;SDS011;14108;53.668;10.288;2022-08-01T08:21:03;8.73;;;2.80;;
26413;SDS011;14108;53.668;10.288;2022-08-01T08:23:30;8.63;;;3.00;;
26413;SDS011;14108;53.668;10.288;2022-08-01T08:26:16;10.15;;;3.15;;
26413;SDS011;14108;53.668;10.288;2022-08-01T08:28:43;10.70;;;3.65;;
26413;SDS011;14108;53.668;10.288;2022-08-01T08:31:10;12.50;;;2.90;;
26413;SDS011;14108;53.668;10.288;2022-08-01T08:33:37;10.70;;;2.95;;
26413;SDS011;14108;53.668;10.288;2022-08-01T08:36:04;9.75;;;3.22;;
26413;SDS011;14108;53.668;10.288;2022-08-01T08:38:31;9.60;;;3.20;;
26413;SDS011;14108;53.668;10.288;2022-08-01T08:40:59;11.45;;;3.72;;
26413;SDS011;14108;53.668;10.288;2022-08-01T08:43:26;8.38;;;3.08;;
26413;SDS011;14108;53.668;10.288;2022-08-01T08:45:53;5.97;;;3.10;;
26413;SDS011;14108;53.668;10.288;2022-08-01T08:48:20;7.43;;;3.10;;
26413;SDS011;14108;53.668;10.288;2022-08-01T08:50:48;10.75;;;3.12;;
26413;SDS011;14108;53.668;10.288;2022-08-01T08:53:16;6.60;;;2.80;;
26413;SDS011;14108;53.668;10.288;2022-08-01T08:55:44;7.03;;;2.53;;
26413;SDS011;14108;53.668;10.288;2022-08-01T08:58:12;120.25;;;14.90;;
26413;SDS011;14108;53.668;10.288;2022-08-01T09:00:39;12.15;;;3.33;;
26413;SDS011;14108;53.668;10.288;2022-08-01T09:03:07;10.18;;;3.37;;
26413;SDS011;14108;53.668;10.288;2022-08-01T09:05:34;9.70;;;3.37;;
26413;SDS011;14108;53.668;10.288;2022-08-01T09:08:01;9.52;;;3.92;;
26413;SDS011;14108;53.668;10.288;2022-08-01T09:10:28;14.23;;;5.05;;
26413;SDS011;14108;53.668;10.288;2022-08-01T09:13:08;10.55;;;4.25;;
26413;SDS011;14108;53.668;10.288;2022-08-01T09:15:43;12.43;;;4.00;;
26413;SDS011;14108;53.668;10.288;2022-08-01T09:18:26;13.90;;;3.65;;
26413;SDS011;14108;53.668;10.288;2022-08-01T09:21:02;6.17;;;3.00;;
26413;SDS011;14108;53.668;10.288;2022-08-01T09:23:34;9.80;;;2.80;;
26413;SDS011;14108;53.668;10.288;2022-08-01T09:26:04;15.32;;;3.80;;
26413;SDS011;14108;53.668;10.288;2022-08-01T09:28:31;7.15;;;3.20;;
26413;SDS011;14108;53.668;10.288;2022-08-01T09:30:58;7.75;;;3.10;;
26413;SDS011;14108;53.668;10.288;2022-08-01T09:33:26;8.77;;;3.58;;
26413;SDS011;14108;53.668;10.288;2022-08-01T09:35:55;31.73;;;7.28;;
26413;SDS011;14108;53.668;10.288;2022-08-01T09:38:23;37.00;;;6.28;;
26413;SDS011;14108;53.668;10.288;2022-08-01T09:40:53;7.18;;;2.40;;
26413;SDS011;14108;53.668;10.288;2022-08-01T09:43:21;84.53;;;13.95;;
26413;SDS011;14108;53.668;10.288;2022-08-01T09:45:48;17.65;;;3.42;;
26413;SDS011;14108;53.668;10.288;2022-08-01T09:48:15;16.55;;;3.85;;
26413;SDS011;14108;53.668;10.288;2022-08-01T09:50:43;29.33;;;4.82;;
26413;SDS011;14108;53.668;10.288;2022-08-01T09:53:11;14.45;;;2.85;;
26413;SDS011;14108;53.668;10.288;2022-08-01T09:55:38;9.02;;;1.80;;
26413;SDS011;14108;53.668;10.288;2022-08-01T09:58:05;6.03;;;2.00;;
26413;SDS011;14108;53.668;10.288;2022-08-01T10:00:32;4.87;;;1.60;;
26413;SDS011;14108;53.668;10.288;2022-08-01T10:03:00;9.15;;;2.65;;
26413;SDS011;14108;53.668;10.288;2022-08-01T10:05:30;8.23;;;2.12;;
26413;SDS011;14108;53.668;10.288;2022-08-01T10:07:59;7.43;;;2.30;;
26413;SDS011;14108;53.668;10.288;2022-08-01T10:10:27;7.75;;;2.50;;
26413;SDS011;14108;53.668;10.288;2022-08-01T10:12:54;8.38;;;2.35;;
26413;SDS011;14108;53.668;10.288;2022-08-01T10:15:21;11.68;;;2.15;;
26413;SDS011;14108;53.668;10.288;2022-08-01T10:17:51;7.37;;;1.80;;
26413;SDS011;14108;53.668;10.288;2022-08-01T10:20:20;8.85;;;2.20;;
26413;SDS011;14108;53.668;10.288;2022-08-01T10:22:47;6.95;;;2.20;;
26413;SDS011;14108;53.668;10.288;2022-08-01T10:25:16;9.85;;;2.42;;
26413;SDS011;14108;53.668;10.288;2022-08-01T10:27:44;10.15;;;2.47;;
26413;SDS011;14108;53.668;10.288;2022-08-01T10:30:12;5.40;;;2.10;;
26413;SDS011;14108;53.668;10.288;2022-08-01T10:32:39;10.68;;;2.50;;
26413;SDS011;14108;53.668;10.288;2022-08-01T10:35:08;8.57;;;1.95;;
26413;SDS011;14108;53.668;10.288;2022-08-01T10:37:40;8.95;;;3.00;;
26413;SDS011;14108;53.668;10.288;2022-08-01T10:40:08;9.40;;;2.80;;
26413;SDS011;14108;53.668;10.288;2022-08-01T10:42:35;7.05;;;1.83;;
26413;SDS011;14108;53.668;10.288;2022-08-01T10:45:02;8.02;;;1.90;;
26413;SDS011;14108;53.668;10.288;2022-08-01T10:47:33;8.65;;;2.45;;
26413;SDS011;14108;53.668;10.288;2022-08-01T10:50:07;8.10;;;2.28;;
26413;SDS011;14108;53.668;10.288;2022-08-01T10:52:34;4.75;;;1.92;;
26413;SDS011;14108;53.668;10.288;2022-08-01T10:55:04;11.48;;;3.62;;
26413;SDS011;14108;53.668;10.288;2022-08-01T10:57:42;8.88;;;2.30;;
26413;SDS011;14108;53.668;10.288;2022-08-01T11:00:10;10.95;;;2.50;;
26413;SDS011;14108;53.668;10.288;2022-08-01T11:02:42;7.47;;;2.12;;
26413;SDS011;14108;53.668;10.288;2022-08-01T11:05:23;5.18;;;1.70;;
26413;SDS011;14108;53.668;10.288;2022-08-01T11:07:52;6.22;;;1.98;;
26413;SDS011;14108;53.668;10.288;2022-08-01T11:10:22;3.15;;;1.55;;
26413;SDS011;14108;53.668;10.288;2022-08-01T11:12:51;7.20;;;1.80;;
26413;SDS011;14108;53.668;10.288;2022-08-01T11:18:00;10.25;;;2.08;;
26413;SDS011;14108;53.668;10.288;2022-08-01T11:20:28;4.97;;;1.75;;
26413;SDS011;14108;53.668;10.288;2022-08-01T11:26:07;9.38;;;1.98;;
26413;SDS011;14108;53.668;10.288;2022-08-01T11:28:35;10.23;;;2.12;;
26413;SDS011;14108;53.668;10.288;2022-08-01T11:33:50;6.30;;;1.65;;
26413;SDS011;14108;53.668;10.288;2022-08-01T11:36:17;7.10;;;1.60;;
26413;SDS011;14108;53.668;10.288;2022-08-01T11:38:46;8.23;;;2.05;;
26413;SDS011;14108;53.668;10.288;2022-08-01T11:41:14;11.63;;;2.17;;
26413;SDS011;14108;53.668;10.288;2022-08-01T11:43:54;7.70;;;2.10;;
26413;SDS011;14108;53.668;10.288;2022-08-01T11:49:24;7.35;;;1.98;;
26413;SDS011;14108;53.668;10.288;2022-08-01T11:51:57;7.95;;;1.70;;
26413;SDS011;14108;53.668;10.288;2022-08-01T11:54:25;10.40;;;2.35;;
26413;SDS011;14108;53.668;10.288;2022-08-01T11:56:54;6.97;;;2.05;;
26413;SDS011;14108;53.668;10.288;2022-08-01T11:59:21;7.25;;;1.42;;
26413;SDS011;14108;53.668;10.288;2022-08-01T12:01:48;8.38;;;2.03;;
26413;SDS011;14108;53.668;10.288;2022-08-01T12:04:15;6.43;;;1.73;;
26413;SDS011;14108;53.668;10.288;2022-08-01T12:06:43;6.00;;;1.65;;
26413;SDS011;14108;53.668;10.288;2022-08-01T12:09:19;10.77;;;2.03;;
26413;SDS011;14108;53.668;10.288;2022-08-01T12:11:47;7.43;;;1.77;;
26413;SDS011;14108;53.668;10.288;2022-08-01T12:14:20;3.90;;;1.37;;
26413;SDS011;14108;53.668;10.288;2022-08-01T12:16:48;7.12;;;1.87;;
26413;SDS011;14108;53.668;10.288;2022-08-01T12:19:18;12.65;;;1.80;;
26413;SDS011;14108;53.668;10.288;2022-08-01T12:21:45;5.65;;;1.55;;
26413;SDS011;14108;53.668;10.288;2022-08-01T12:24:31;5.85;;;1.42;;
26413;SDS011;14108;53.668;10.288;2022-08-01T12:26:58;5.20;;;1.70;;
26413;SDS011;14108;53.668;10.288;2022-08-01T12:29:32;5.72;;;2.22;;
26413;SDS011;14108;53.668;10.288;2022-08-01T12:31:59;6.40;;;2.03;;
26413;SDS011;14108;53.668;10.288;2022-08-01T12:37:05;5.93;;;1.92;;
26413;SDS011;14108;53.668;10.288;2022-08-01T12:39:32;5.28;;;1.55;;
26413;SDS011;14108;53.668;10.288;2022-08-01T12:42:05;3.92;;;1.23;;
26413;SDS011;14108;53.668;10.288;2022-08-01T12:44:33;5.05;;;1.40;;
26413;SDS011;14108;53.668;10.288;2022-08-01T12:47:01;8.65;;;2.00;;
26413;SDS011;14108;53.668;10.288;2022-08-01T12:49:28;4.20;;;1.80;;
26413;SDS011;14108;53.668;10.288;2022-08-01T12:51:56;10.15;;;1.73;;
26413;SDS011;14108;53.668;10.288;2022-08-01T12:54:23;7.97;;;1.27;;
26413;SDS011;14108;53.668;10.288;2022-08-01T12:56:51;8.75;;;1.67;;
26413;SDS011;14108;53.668;10.288;2022-08-01T12:59:23;7.47;;;1.70;;
26413;SDS011;14108;53.668;10.288;2022-08-01T13:01:51;6.00;;;2.03;;
26413;SDS011;14108;53.668;10.288;2022-08-01T13:04:19;6.78;;;1.55;;
26413;SDS011;14108;53.668;10.288;2022-08-01T13:06:46;5.95;;;1.60;;
26413;SDS011;14108;53.668;10.288;2022-08-01T13:09:13;8.43;;;1.40;;
26413;SDS011;14108;53.668;10.288;2022-08-01T13:11:41;7.07;;;1.62;;
26413;SDS011;14108;53.668;10.288;2022-08-01T13:14:09;5.93;;;1.45;;
26413;SDS011;14108;53.668;10.288;2022-08-01T13:16:46;2.75;;;1.20;;
26413;SDS011;14108;53.668;10.288;2022-08-01T13:19:13;8.13;;;1.73;;
26413;SDS011;14108;53.668;10.288;2022-08-01T13:24:28;5.35;;;1.55;;
26413;SDS011;14108;53.668;10.288;2022-08-01T13:26:56;7.20;;;1.85;;
26413;SDS011;14108;53.668;10.288;2022-08-01T13:29:32;6.90;;;1.62;;
26413;SDS011;14108;53.668;10.288;2022-08-01T13:31:59;6.35;;;1.52;;
26413;SDS011;14108;53.668;10.288;2022-08-01T13:34:30;7.68;;;1.52;;
26413;SDS011;14108;53.668;10.288;2022-08-01T13:36:57;3.95;;;1.40;;
26413;SDS011;14108;53.668;10.288;2022-08-01T13:39:24;2.83;;;1.10;;
26413;SDS011;14108;53.668;10.288;2022-08-01T13:42:06;5.50;;;1.33;;
26413;SDS011;14108;53.668;10.288;2022-08-01T13:44:34;5.82;;;1.30;;
26413;SDS011;14108;53.668;10.288;2022-08-01T13:47:01;3.62;;;1.33;;
26413;SDS011;14108;53.668;10.288;2022-08-01T13:49:29;4.37;;;1.33;;
26413;SDS011;14108;53.668;10.288;2022-08-01T13:51:56;6.15;;;1.27;;
26413;SDS011;14108;53.668;10.288;2022-08-01T13:54:23;4.47;;;1.23;;
26413;SDS011;14108;53.668;10.288;2022-08-01T13:56:50;4.80;;;1.23;;
26413;SDS011;14108;53.668;10.288;2022-08-01T13:59:17;5.45;;;1.33;;
26413;SDS011;14108;53.668;10.288;2022-08-01T14:01:44;7.40;;;1.37;;
26413;SDS011;14108;53.668;10.288;2022-08-01T14:04:12;8.25;;;1.67;;
26413;SDS011;14108;53.668;10.288;2022-08-01T14:06:40;5.32;;;1.25;;
26413;SDS011;14108;53.668;10.288;2022-08-01T14:09:07;4.75;;;1.40;;
26413;SDS011;14108;53.668;10.288;2022-08-01T14:11:34;3.40;;;1.65;;
26413;SDS011;14108;53.668;10.288;2022-08-01T14:14:01;5.75;;;1.45;;
26413;SDS011;14108;53.668;10.288;2022-08-01T14:16:28;4.25;;;1.40;;
26413;SDS011;14108;53.668;10.288;2022-08-01T14:18:55;7.15;;;1.70;;
26413;SDS011;14108;53.668;10.288;2022-08-01T14:21:22;7.80;;;2.00;;
26413;SDS011;14108;53.668;10.288;2022-08-01T14:23:49;6.97;;;1.30;;
26413;SDS011;14108;53.668;10.288;2022-08-01T14:26:17;6.10;;;1.65;;
26413;SDS011;14108;53.668;10.288;2022-08-01T14:28:44;5.80;;;1.92;;
26413;SDS011;14108;53.668;10.288;2022-08-01T14:31:11;4.25;;;1.55;;
26413;SDS011;14108;53.668;10.288;2022-08-01T14:33:38;4.62;;;1.33;;
26413;SDS011;14108;53.668;10.288;2022-08-01T14:36:05;4.07;;;1.25;;
26413;SDS011;14108;53.668;10.288;2022-08-01T14:38:32;8.48;;;1.65;;
26413;SDS011;14108;53.668;10.288;2022-08-01T14:40:59;4.18;;;1.20;;
26413;SDS011;14108;53.668;10.288;2022-08-01T14:43:28;5.82;;;1.30;;
26413;SDS011;14108;53.668;10.288;2022-08-01T14:45:57;5.53;;;1.37;;
26413;SDS011;14108;53.668;10.288;2022-08-01T14:48:24;4.75;;;1.92;;
26413;SDS011;14108;53.668;10.288;2022-08-01T14:50:51;7.87;;;1.37;;
26413;SDS011;14108;53.668;10.288;2022-08-01T14:53:18;6.50;;;1.67;;